createdAt,value
2019-03-28T00:00:31.181Z,-1.50
2019-03-28T00:02:59.858Z,-1.55
2019-03-28T00:05:28.769Z,-1.59
2019-03-28T00:07:58.156Z,-1.60
2019-03-28T00:10:26.984Z,-1.65
2019-03-28T00:12:55.637Z,-1.70
2019-03-28T00:15:24.245Z,-1.68
2019-03-28T00:17:52.830Z,-1.72
2019-03-28T00:20:21.615Z,-1.72
2019-03-28T00:22:51.801Z,-1.70
2019-03-28T00:25:21.319Z,-1.72
2019-03-28T00:27:49.887Z,-1.72
2019-03-28T00:30:20.129Z,-1.70
2019-03-28T00:32:48.672Z,-1.69
2019-03-28T00:35:17.284Z,-1.70
2019-03-28T00:37:45.832Z,-1.70
2019-03-28T00:40:14.442Z,-1.73
2019-03-28T00:42:51.654Z,-1.78
2019-03-28T00:45:20.123Z,-1.82
2019-03-28T00:47:48.671Z,-1.82
2019-03-28T00:50:17.381Z,-1.83
2019-03-28T00:52:45.943Z,-1.89
2019-03-28T00:55:14.561Z,-1.89
2019-03-28T00:57:43.131Z,-1.89
2019-03-28T01:00:12.644Z,-1.89
2019-03-28T01:02:41.347Z,-1.89
2019-03-28T01:05:10.463Z,-1.93
2019-03-28T01:07:38.952Z,-1.95
2019-03-28T01:10:08.066Z,-1.97
2019-03-28T01:12:36.674Z,-1.97
2019-03-28T01:15:07.591Z,-2.00
2019-03-28T01:17:36.196Z,-2.00
2019-03-28T01:20:06.786Z,-2.02
2019-03-28T01:22:35.324Z,-2.01
2019-03-28T01:25:04.142Z,-1.98
2019-03-28T01:27:32.793Z,-1.93
2019-03-28T01:30:01.403Z,-1.92
2019-03-28T01:32:30.034Z,-1.94
2019-03-28T01:34:58.696Z,-1.95
2019-03-28T01:37:27.317Z,-1.96
2019-03-28T01:39:55.858Z,-1.96
2019-03-28T01:42:24.504Z,-1.99
2019-03-28T01:44:53.187Z,-2.02
2019-03-28T01:47:21.879Z,-2.08
2019-03-28T01:49:50.515Z,-2.10
2019-03-28T01:52:19.190Z,-2.10
2019-03-28T01:54:47.799Z,-2.14
2019-03-28T01:57:16.307Z,-2.13
2019-03-28T01:59:44.915Z,-2.13
2019-03-28T02:02:13.634Z,-2.09
2019-03-28T02:04:42.244Z,-2.02
2019-03-28T02:07:12.102Z,-1.96
2019-03-28T02:09:40.629Z,-1.89
2019-03-28T02:12:09.252Z,-1.83
2019-03-28T02:14:38.300Z,-1.82
2019-03-28T02:17:07.172Z,-1.78
2019-03-28T02:19:35.881Z,-1.73
2019-03-28T02:22:04.471Z,-1.65
2019-03-28T02:24:33.125Z,-1.61
2019-03-28T02:27:01.949Z,-1.56
2019-03-28T02:29:30.562Z,-1.54
2019-03-28T02:31:59.224Z,-1.48
2019-03-28T02:34:27.766Z,-1.43
2019-03-28T02:36:56.382Z,-1.37
2019-03-28T02:39:25.123Z,-1.35
2019-03-28T02:41:53.796Z,-1.32
2019-03-28T02:44:22.332Z,-1.27
2019-03-28T02:46:50.835Z,-1.22
2019-03-28T02:49:19.939Z,-1.18
2019-03-28T02:51:48.730Z,-1.14
2019-03-28T02:54:17.273Z,-1.11
2019-03-28T02:56:45.920Z,-1.09
2019-03-28T02:59:14.727Z,-1.08
2019-03-28T03:01:43.435Z,-1.08
2019-03-28T03:04:12.145Z,-1.09
2019-03-28T03:06:40.741Z,-1.06
2019-03-28T03:09:10.264Z,-1.00
2019-03-28T03:11:42.549Z,-0.98
2019-03-28T03:14:09.290Z,-0.95
2019-03-28T03:16:37.941Z,-0.94
2019-03-28T03:19:06.574Z,-0.93
2019-03-28T03:21:36.102Z,-0.92
2019-03-28T03:24:05.244Z,-0.88
2019-03-28T03:26:33.858Z,-0.84
2019-03-28T03:29:02.441Z,-0.83
2019-03-28T03:31:31.082Z,-0.80
2019-03-28T03:33:59.719Z,-0.77
2019-03-28T03:36:28.325Z,-0.74
2019-03-28T03:38:59.358Z,-0.70
2019-03-28T03:41:27.282Z,-0.70
2019-03-28T03:43:56.124Z,-0.68
2019-03-28T03:46:24.879Z,-0.66
2019-03-28T03:48:53.427Z,-0.62
2019-03-28T03:51:22.128Z,-0.60
2019-03-28T03:53:50.858Z,-0.59
2019-03-28T03:56:19.511Z,-0.59
2019-03-28T03:58:48.062Z,-0.59
2019-03-28T04:01:16.708Z,-0.56
2019-03-28T04:03:45.305Z,-0.56
2019-03-28T04:06:14.240Z,-0.55
2019-03-28T04:08:45.080Z,-0.56
2019-03-28T04:11:13.246Z,-0.56
2019-03-28T04:13:42.029Z,-0.56
2019-03-28T04:16:10.715Z,-0.57
2019-03-28T04:18:39.955Z,-0.57
2019-03-28T04:21:08.963Z,-0.56
2019-03-28T04:23:37.567Z,-0.54
2019-03-28T04:26:06.585Z,-0.53
2019-03-28T04:28:35.250Z,-0.54
2019-03-28T04:31:03.946Z,-0.51
2019-03-28T04:33:33.922Z,-0.47
2019-03-28T04:36:02.589Z,-0.45
2019-03-28T04:38:31.507Z,-0.43
2019-03-28T04:41:00.401Z,-0.40
2019-03-28T04:43:29.411Z,-0.36
2019-03-28T04:45:57.959Z,-0.36
2019-03-28T04:48:27.271Z,-0.32
2019-03-28T04:50:56.272Z,-0.27
2019-03-28T04:53:25.043Z,-0.25
2019-03-28T04:55:53.959Z,-0.23
2019-03-28T04:58:23.304Z,-0.21
2019-03-28T05:00:52.664Z,-0.16
2019-03-28T05:03:21.339Z,-0.14
2019-03-28T05:05:49.993Z,-0.12
2019-03-28T05:08:18.700Z,-0.10
2019-03-28T05:10:47.486Z,-0.07
2019-03-28T05:13:16.582Z,-0.05
2019-03-28T05:15:45.470Z,-0.08
2019-03-28T05:18:14.151Z,-0.11
2019-03-28T05:20:42.950Z,-0.09
2019-03-28T05:23:11.724Z,-0.06
2019-03-28T05:25:40.618Z,-0.04
2019-03-28T05:28:15.720Z,-0.05
2019-03-28T05:30:39.924Z,-0.02
2019-03-28T05:33:08.651Z,0.03
2019-03-28T05:35:37.393Z,0.10
2019-03-28T05:38:06.077Z,0.17
2019-03-28T05:40:34.864Z,0.26
2019-03-28T05:43:03.518Z,0.35
2019-03-28T05:45:32.192Z,0.42
2019-03-28T05:48:00.773Z,0.46
2019-03-28T05:50:29.441Z,0.54
2019-03-28T05:52:58.045Z,0.56
2019-03-28T05:55:26.720Z,0.59
2019-03-28T05:57:55.289Z,0.69
2019-03-28T06:00:23.916Z,0.75
2019-03-28T06:02:52.523Z,0.75
2019-03-28T06:05:21.109Z,0.72
2019-03-28T06:07:49.802Z,0.82
2019-03-28T06:10:18.728Z,1.06
2019-03-28T06:12:47.344Z,1.38
2019-03-28T06:15:16.067Z,1.69
2019-03-28T06:17:44.653Z,2.04
2019-03-28T06:20:13.295Z,2.29
2019-03-28T06:22:41.836Z,2.49
2019-03-28T06:25:10.536Z,2.68
2019-03-28T06:27:39.155Z,2.87
2019-03-28T06:30:09.376Z,3.04
2019-03-28T06:32:43.200Z,3.16
2019-03-28T06:35:08.491Z,3.25
2019-03-28T06:37:37.124Z,3.30
2019-03-28T06:40:07.267Z,3.31
2019-03-28T06:42:35.902Z,3.34
2019-03-28T06:45:06.725Z,3.39
2019-03-28T06:47:35.413Z,3.42
2019-03-28T06:50:05.590Z,3.47
2019-03-28T06:52:34.122Z,3.50
2019-03-28T06:55:02.737Z,3.54
2019-03-28T06:57:31.250Z,3.61
2019-03-28T06:59:59.815Z,3.67
2019-03-28T07:02:28.438Z,3.74
2019-03-28T07:04:56.964Z,3.82
2019-03-28T07:07:26.966Z,3.94
2019-03-28T07:09:57.077Z,4.02
2019-03-28T07:12:25.748Z,4.14
2019-03-28T07:14:55.072Z,4.25
2019-03-28T07:17:23.683Z,4.39
2019-03-28T07:19:52.305Z,4.55
2019-03-28T07:22:20.781Z,4.63
2019-03-28T07:24:49.269Z,4.69
2019-03-28T07:27:17.831Z,4.72
2019-03-28T07:29:51.182Z,4.75
2019-03-28T07:32:16.773Z,4.80
2019-03-28T07:34:45.333Z,4.84
2019-03-28T07:37:13.942Z,4.86
2019-03-28T07:39:42.681Z,4.89
2019-03-28T07:42:11.464Z,4.92
2019-03-28T07:44:40.188Z,4.94
2019-03-28T07:47:08.814Z,4.94
2019-03-28T07:49:37.785Z,4.95
2019-03-28T07:52:06.642Z,4.95
2019-03-28T07:54:35.185Z,4.93
2019-03-28T07:57:03.797Z,4.92
2019-03-28T07:59:32.327Z,4.93
2019-03-28T08:02:00.873Z,4.97
2019-03-28T08:04:29.406Z,5.06
2019-03-28T08:06:57.869Z,5.11
2019-03-28T08:09:36.122Z,5.22
2019-03-28T08:11:56.742Z,5.33
2019-03-28T08:14:25.217Z,5.47
2019-03-28T08:16:53.818Z,5.59
2019-03-28T08:19:22.426Z,5.65
2019-03-28T08:21:50.958Z,5.71
2019-03-28T08:24:19.579Z,5.66
2019-03-28T08:26:48.107Z,5.65
2019-03-28T08:29:16.700Z,5.75
2019-03-28T08:31:47.182Z,5.86
2019-03-28T08:34:15.792Z,5.94
2019-03-28T08:36:45.225Z,6.04
2019-03-28T08:39:14.730Z,6.16
2019-03-28T08:41:48.740Z,6.28
2019-03-28T08:44:16.809Z,6.41
2019-03-28T08:46:45.382Z,6.51
2019-03-28T08:49:13.992Z,6.61
2019-03-28T08:51:42.535Z,6.68
2019-03-28T08:54:11.233Z,6.78
2019-03-28T08:56:39.830Z,6.82
2019-03-28T08:59:08.430Z,6.83
2019-03-28T09:01:37.032Z,6.85
2019-03-28T09:04:05.649Z,6.84
2019-03-28T09:06:34.182Z,6.84
2019-03-28T09:09:02.818Z,6.74
2019-03-28T09:11:31.448Z,6.77
2019-03-28T09:13:59.981Z,6.72
2019-03-28T09:16:28.540Z,6.62
2019-03-28T09:18:57.103Z,6.54
2019-03-28T09:21:25.655Z,6.50
2019-03-28T09:23:54.264Z,6.52
2019-03-28T09:26:22.872Z,6.57
2019-03-28T09:28:51.430Z,6.50
2019-03-28T09:31:20.569Z,6.45
2019-03-28T09:33:49.448Z,6.43
2019-03-28T09:36:17.953Z,6.51
2019-03-28T09:38:46.440Z,6.56
2019-03-28T09:41:15.212Z,6.53
2019-03-28T09:43:54.467Z,6.52
2019-03-28T09:46:14.276Z,6.57
2019-03-28T09:48:42.805Z,6.57
2019-03-28T09:51:11.370Z,6.55
2019-03-28T09:53:39.905Z,6.54
2019-03-28T09:56:08.484Z,6.58
2019-03-28T09:58:37.017Z,6.69
2019-03-28T10:01:05.655Z,6.73
2019-03-28T10:03:34.191Z,6.81
2019-03-28T10:06:02.797Z,6.75
2019-03-28T10:08:31.376Z,6.82
2019-03-28T10:10:59.983Z,6.98
2019-03-28T10:13:28.588Z,7.04
2019-03-28T10:15:57.458Z,7.17
2019-03-28T10:18:26.276Z,7.30
2019-03-28T10:20:54.873Z,7.43
2019-03-28T10:23:24.400Z,7.38
2019-03-28T10:25:52.981Z,7.44
2019-03-28T10:28:22.289Z,7.56
2019-03-28T10:30:56.441Z,7.54
2019-03-28T10:33:24.999Z,7.42
2019-03-28T10:35:53.598Z,7.54
2019-03-28T10:38:22.162Z,7.52
2019-03-28T10:40:52.194Z,7.74
2019-03-28T10:43:20.647Z,7.87
2019-03-28T10:45:49.258Z,8.00
2019-03-28T10:48:17.883Z,8.07
2019-03-28T10:50:46.557Z,8.19
2019-03-28T10:53:15.230Z,8.30
2019-03-28T10:55:43.841Z,8.28
2019-03-28T10:58:18.827Z,8.27
2019-03-28T11:00:43.092Z,8.20
2019-03-28T11:03:11.738Z,8.28
2019-03-28T11:05:40.694Z,8.32
2019-03-28T11:08:09.592Z,8.31
2019-03-28T11:10:38.247Z,8.36
2019-03-28T11:13:09.584Z,8.44
2019-03-28T11:15:37.381Z,8.50
2019-03-28T11:18:05.996Z,8.53
2019-03-28T11:20:35.704Z,8.49
2019-03-28T11:23:04.697Z,8.29
2019-03-28T11:25:33.274Z,8.18
2019-03-28T11:28:01.817Z,8.24
2019-03-28T11:30:30.374Z,8.33
2019-03-28T11:32:58.989Z,8.39
2019-03-28T11:35:27.517Z,8.39
2019-03-28T11:37:56.049Z,8.34
2019-03-28T11:40:24.701Z,8.29
2019-03-28T11:42:53.937Z,8.21
2019-03-28T11:45:22.918Z,8.03
2019-03-28T11:47:51.501Z,7.98
2019-03-28T11:50:20.131Z,8.02
2019-03-28T11:52:48.774Z,8.02
2019-03-28T11:55:17.435Z,7.87
2019-03-28T11:57:46.038Z,7.72
2019-03-28T12:00:16.943Z,7.62
2019-03-28T12:02:45.499Z,7.62
2019-03-28T12:05:14.105Z,7.58
2019-03-28T12:07:42.638Z,7.56
2019-03-28T12:10:14.778Z,7.57
2019-03-28T12:12:43.438Z,7.65
2019-03-28T12:15:12.953Z,7.55
2019-03-28T12:17:41.577Z,7.48
2019-03-28T12:20:11.658Z,7.45
2019-03-28T12:22:40.351Z,7.46
2019-03-28T12:25:09.116Z,7.41
2019-03-28T12:27:37.763Z,7.24
2019-03-28T12:30:09.459Z,7.20
2019-03-28T12:32:38.067Z,7.10
2019-03-28T12:35:08.571Z,6.95
2019-03-28T12:37:37.216Z,6.90
2019-03-28T12:40:10.548Z,6.82
2019-03-28T12:42:39.085Z,6.75
2019-03-28T12:45:11.995Z,6.71
2019-03-28T12:47:42.642Z,6.66
2019-03-28T12:50:12.951Z,6.62
2019-03-28T12:52:41.528Z,6.60
2019-03-28T12:55:10.928Z,6.52
2019-03-28T12:57:39.541Z,6.51
2019-03-28T13:00:10.445Z,6.53
2019-03-28T13:02:39.079Z,6.54
2019-03-28T13:05:09.357Z,6.63
2019-03-28T13:07:37.987Z,6.73
2019-03-28T13:10:08.566Z,6.76
2019-03-28T13:12:37.719Z,6.85
2019-03-28T13:15:08.078Z,6.96
2019-03-28T13:17:36.631Z,7.04
2019-03-28T13:20:10.030Z,7.18
2019-03-28T13:22:38.562Z,7.26
2019-03-28T13:25:09.167Z,7.24
2019-03-28T13:27:38.243Z,7.34
2019-03-28T13:30:10.050Z,7.39
2019-03-28T13:32:42.169Z,7.38
2019-03-28T13:35:09.265Z,7.35
2019-03-28T13:37:37.871Z,7.28
2019-03-28T13:40:08.183Z,7.27
2019-03-28T13:42:38.817Z,7.25
2019-03-28T13:45:10.098Z,7.14
2019-03-28T13:47:39.004Z,7.09
2019-03-28T13:50:08.727Z,7.05
2019-03-28T13:52:37.347Z,6.98
2019-03-28T13:55:07.350Z,7.04
2019-03-28T13:57:36.022Z,7.08
2019-03-28T14:00:07.168Z,7.10
2019-03-28T14:02:36.275Z,7.16
2019-03-28T14:05:06.990Z,7.24
2019-03-28T14:07:35.598Z,7.34
2019-03-28T14:10:08.631Z,7.43
2019-03-28T14:12:37.302Z,7.48
2019-03-28T14:15:07.610Z,7.52
2019-03-28T14:17:36.339Z,7.61
2019-03-28T14:20:08.990Z,7.61
2019-03-28T14:22:37.577Z,7.58
2019-03-28T14:25:07.777Z,7.55
2019-03-28T14:27:36.415Z,7.49
2019-03-28T14:30:09.602Z,7.39
2019-03-28T14:32:52.078Z,7.35
2019-03-28T14:35:08.854Z,7.30
2019-03-28T14:37:40.651Z,7.23
2019-03-28T14:40:12.401Z,7.20
2019-03-28T14:42:41.271Z,7.19
2019-03-28T14:45:10.401Z,7.19
2019-03-28T14:47:38.939Z,7.18
2019-03-28T14:50:08.760Z,7.16
2019-03-28T14:52:37.505Z,7.13
2019-03-28T14:55:06.553Z,7.05
2019-03-28T14:57:36.102Z,6.95
2019-03-28T15:00:07.768Z,6.87
2019-03-28T15:02:36.302Z,6.82
2019-03-28T15:05:06.108Z,6.78
2019-03-28T15:07:34.695Z,6.74
2019-03-28T15:10:04.108Z,6.72
2019-03-28T15:12:32.628Z,6.71
2019-03-28T15:15:01.160Z,6.68
2019-03-28T15:17:29.930Z,6.66
2019-03-28T15:19:58.736Z,6.66
2019-03-28T15:22:27.278Z,6.67
2019-03-28T15:24:55.829Z,6.66
2019-03-28T15:27:24.455Z,6.66
2019-03-28T15:29:53.128Z,6.71
2019-03-28T15:32:21.837Z,6.76
2019-03-28T15:34:50.304Z,6.82
2019-03-28T15:37:18.770Z,6.81
2019-03-28T15:39:47.512Z,6.85
2019-03-28T15:42:16.115Z,6.88
2019-03-28T15:44:44.652Z,6.85
2019-03-28T15:47:13.186Z,6.81
2019-03-28T15:49:42.121Z,6.78
2019-03-28T15:52:10.746Z,6.75
2019-03-28T15:54:39.253Z,6.72
2019-03-28T15:57:07.895Z,6.69
2019-03-28T15:59:36.357Z,6.65
2019-03-28T16:02:06.166Z,6.65
2019-03-28T16:04:35.484Z,6.63
2019-03-28T16:07:04.089Z,6.60
2019-03-28T16:09:32.687Z,6.60
2019-03-28T16:12:02.778Z,6.58
2019-03-28T16:14:31.592Z,6.56
2019-03-28T16:17:00.199Z,6.53
2019-03-28T16:19:28.732Z,6.51
2019-03-28T16:21:57.270Z,6.48
2019-03-28T16:24:25.830Z,6.45
2019-03-28T16:26:54.874Z,6.42
2019-03-28T16:29:23.474Z,6.39
2019-03-28T16:31:52.079Z,6.34
2019-03-28T16:34:20.621Z,6.32
2019-03-28T16:36:49.158Z,6.28
2019-03-28T16:39:17.690Z,6.25
2019-03-28T16:41:46.254Z,6.16
2019-03-28T16:44:14.855Z,6.10
2019-03-28T16:46:43.390Z,6.04
2019-03-28T16:49:11.928Z,6.00
2019-03-28T16:51:43.318Z,5.95
2019-03-28T16:54:10.781Z,5.89
2019-03-28T16:56:39.393Z,5.79
2019-03-28T16:59:08.038Z,5.74
2019-03-28T17:01:36.575Z,5.64
2019-03-28T17:04:05.184Z,5.57
2019-03-28T17:06:33.860Z,5.48
2019-03-28T17:09:04.479Z,5.39
2019-03-28T17:11:33.167Z,5.29
2019-03-28T17:14:01.772Z,5.24
2019-03-28T17:16:30.321Z,5.19
2019-03-28T17:18:58.936Z,5.12
2019-03-28T17:21:27.578Z,5.09
2019-03-28T17:23:56.187Z,5.02
2019-03-28T17:26:24.835Z,5.00
2019-03-28T17:28:53.464Z,4.97
2019-03-28T17:31:24.062Z,4.94
2019-03-28T17:33:52.310Z,4.93
2019-03-28T17:36:20.844Z,4.91
2019-03-28T17:38:49.444Z,4.91
2019-03-28T17:41:18.077Z,4.89
2019-03-28T17:43:46.707Z,4.85
2019-03-28T17:46:15.325Z,4.83
2019-03-28T17:48:43.785Z,4.78
2019-03-28T17:51:12.321Z,4.74
2019-03-28T17:53:40.858Z,4.72
2019-03-28T17:56:09.395Z,4.68
2019-03-28T17:58:38.000Z,4.60
2019-03-28T18:01:07.217Z,4.55
2019-03-28T18:03:35.691Z,4.49
2019-03-28T18:06:04.646Z,4.43
2019-03-28T18:08:33.234Z,4.36
2019-03-28T18:11:01.810Z,4.30
2019-03-28T18:13:32.130Z,4.26
2019-03-28T18:16:00.820Z,4.19
2019-03-28T18:18:29.356Z,4.10
2019-03-28T18:20:57.957Z,4.06
2019-03-28T18:23:26.558Z,3.98
2019-03-28T18:25:56.826Z,3.92
2019-03-28T18:28:25.448Z,3.84
2019-03-28T18:30:54.083Z,3.79
2019-03-28T18:33:22.654Z,3.67
2019-03-28T18:35:57.019Z,3.58
2019-03-28T18:38:21.567Z,3.47
2019-03-28T18:40:50.115Z,3.40
2019-03-28T18:43:18.683Z,3.32
2019-03-28T18:45:47.293Z,3.25
2019-03-28T18:48:27.258Z,3.17
2019-03-28T18:50:46.027Z,3.12
2019-03-28T18:53:14.660Z,3.07
2019-03-28T18:55:43.287Z,2.97
2019-03-28T18:58:11.896Z,2.88
2019-03-28T19:00:40.538Z,2.78
2019-03-28T19:03:09.203Z,2.73
2019-03-28T19:05:37.769Z,2.66
2019-03-28T19:08:08.350Z,2.59
2019-03-28T19:10:37.689Z,2.51
2019-03-28T19:13:08.044Z,2.47
2019-03-28T19:15:36.682Z,2.43
2019-03-28T19:18:05.325Z,2.35
2019-03-28T19:20:35.913Z,2.34
2019-03-28T19:23:06.995Z,2.26
2019-03-28T19:25:34.813Z,2.16
2019-03-28T19:28:03.681Z,2.08
2019-03-28T19:30:34.043Z,2.04
2019-03-28T19:33:02.654Z,2.01
2019-03-28T19:35:33.180Z,2.00
2019-03-28T19:38:03.501Z,1.96
2019-03-28T19:40:32.280Z,1.89
2019-03-28T19:43:01.717Z,1.79
2019-03-28T19:45:36.146Z,1.76
2019-03-28T19:48:05.836Z,1.72
2019-03-28T19:50:34.432Z,1.68
2019-03-28T19:53:03.211Z,1.64
2019-03-28T19:55:31.752Z,1.59
2019-03-28T19:58:00.386Z,1.53
2019-03-28T20:00:29.112Z,1.49
2019-03-28T20:03:00.299Z,1.45
2019-03-28T20:05:27.890Z,1.41
2019-03-28T20:07:56.563Z,1.39
2019-03-28T20:10:25.239Z,1.34
2019-03-28T20:12:53.718Z,1.30
2019-03-28T20:15:22.330Z,1.25
2019-03-28T20:17:50.936Z,1.20
2019-03-28T20:20:20.938Z,1.15
2019-03-28T20:22:49.888Z,1.13
2019-03-28T20:25:18.492Z,1.13
2019-03-28T20:27:47.145Z,1.10
2019-03-28T20:30:15.750Z,1.08
2019-03-28T20:32:44.510Z,1.04
2019-03-28T20:35:13.613Z,1.00
2019-03-28T20:37:42.290Z,0.97
2019-03-28T20:40:12.196Z,0.92
2019-03-28T20:42:40.868Z,0.90
2019-03-28T20:45:11.143Z,0.87
2019-03-28T20:47:40.092Z,0.83
2019-03-28T20:50:09.411Z,0.79
2019-03-28T20:52:37.989Z,0.77
2019-03-28T20:55:08.033Z,0.74
2019-03-28T20:57:36.635Z,0.73
2019-03-28T21:00:08.761Z,0.68
2019-03-28T21:02:37.463Z,0.67
2019-03-28T21:05:08.624Z,0.65
2019-03-28T21:07:37.727Z,0.65
2019-03-28T21:10:07.160Z,0.61
2019-03-28T21:12:35.788Z,0.58
2019-03-28T21:15:06.710Z,0.56
2019-03-28T21:17:35.411Z,0.54
2019-03-28T21:20:06.046Z,0.52
2019-03-28T21:22:34.764Z,0.49
2019-03-28T21:25:03.545Z,0.44
2019-03-28T21:27:32.946Z,0.43
2019-03-28T21:30:01.881Z,0.43
2019-03-28T21:32:30.502Z,0.44
2019-03-28T21:34:59.145Z,0.47
2019-03-28T21:37:27.720Z,0.49
2019-03-28T21:39:56.410Z,0.51
2019-03-28T21:42:25.016Z,0.52
2019-03-28T21:44:53.623Z,0.51
2019-03-28T21:47:22.307Z,0.51
2019-03-28T21:49:50.932Z,0.52
2019-03-28T21:52:19.508Z,0.58
2019-03-28T21:54:48.232Z,0.62
2019-03-28T21:57:16.810Z,0.64
2019-03-28T21:59:45.410Z,0.69
2019-03-28T22:02:14.050Z,0.72
2019-03-28T22:04:42.524Z,0.75
2019-03-28T22:07:11.093Z,0.78
2019-03-28T22:09:40.047Z,0.80
2019-03-28T22:12:08.864Z,0.81
2019-03-28T22:14:37.409Z,0.85
2019-03-28T22:17:05.981Z,0.88
2019-03-28T22:19:34.539Z,0.92
2019-03-28T22:22:03.198Z,0.94
2019-03-28T22:24:31.868Z,0.97
2019-03-28T22:27:00.435Z,0.97
2019-03-28T22:29:29.091Z,0.97
2019-03-28T22:31:57.695Z,0.97
2019-03-28T22:34:33.278Z,0.95
2019-03-28T22:37:03.686Z,0.98
2019-03-28T22:39:32.764Z,1.00
2019-03-28T22:42:01.564Z,1.01
2019-03-28T22:44:30.058Z,0.97
2019-03-28T22:46:58.679Z,0.96
2019-03-28T22:49:27.304Z,0.97
2019-03-28T22:51:55.915Z,0.99
2019-03-28T22:54:24.378Z,1.01
2019-03-28T22:56:52.963Z,1.01
2019-03-28T22:59:23.157Z,1.01
2019-03-28T23:01:51.622Z,1.00
2019-03-28T23:04:20.304Z,0.92
2019-03-28T23:06:48.962Z,0.88
2019-03-28T23:09:17.675Z,0.87
2019-03-28T23:11:46.271Z,0.87
2019-03-28T23:14:14.902Z,0.86
2019-03-28T23:16:43.479Z,0.82
2019-03-28T23:19:12.286Z,0.84
2019-03-28T23:21:41.600Z,0.83
2019-03-28T23:24:10.477Z,0.82
2019-03-28T23:26:39.098Z,0.81
2019-03-28T23:29:07.825Z,0.80
2019-03-28T23:31:36.422Z,0.77
2019-03-28T23:34:05.072Z,0.78
2019-03-28T23:36:34.248Z,0.77
2019-03-28T23:39:03.054Z,0.80
2019-03-28T23:41:31.516Z,0.81
2019-03-28T23:44:00.180Z,0.81
2019-03-28T23:46:28.878Z,0.83
2019-03-28T23:48:57.486Z,0.74
2019-03-28T23:51:26.090Z,0.72
2019-03-28T23:53:54.679Z,0.72
2019-03-28T23:56:23.354Z,0.73
2019-03-28T23:58:51.959Z,0.72
